C E — WDI5089 — position and weather

sailwx.info

Track history (hours):
 
Tides and Currents Weather Stations Pressure Air Temp Water Temp Dewpoint Dewpoint Depression Visibility Wind Speed Wind Dir Waves Ship Positions

C E

Owner: Harley Marine Services, Inc, Seattle, WA. More information available from US FCC via Universal Licensing System and Coast Guard Vessel Documentation Center.

Last reported at 2018-Feb-22 09:00 UTC. Time now 2018-Feb-22 09:12 UTC.
Position N 48°25' W 122°44'.

Length 30 m; draft 6 m.

Type: Tow > 200 m length. MMSI: 367705050.

Date/timePositionNaut miles runAvg speedWind from/ knotsBaromVisibWave heightAir tempDewpointWater temp
2018-Feb-22 09:00N 48°25' W 122°44'2 3.5
2018-Feb-22 08:28N 48°23' W 122°44'2 3.3
2018-Feb-22 07:50N 48°21' W 122°45'2 3.5
2018-Feb-22 07:17N 48°20' W 122°45'1 3.7
2018-Feb-22 06:59N 48°18' W 122°46'18 4.0
2018-Feb-22 02:25N 48°01' W 122°37'2 5.3
2018-Feb-22 02:00N 47°59' W 122°35'3 5.6
2018-Feb-22 01:30N 47°57' W 122°32'3 6.4
2018-Feb-22 01:00N 47°55' W 122°29'3 6.6
2018-Feb-22 00:30N 47°52' W 122°28'3 6.9
2018-Feb-22 00:00N 47°49' W 122°26'3 6.9
2018-Feb-21 23:30N 47°45' W 122°25'3 6.5
2018-Feb-21 23:00N 47°42' W 122°26'3 6.7
2018-Feb-21 22:30N 47°39' W 122°26'3 6.8
2018-Feb-21 22:00N 47°36' W 122°23'2 3.1
2018-Feb-21 21:31N 47°36' W 122°21'0 0.3
2018-Feb-21 21:00N 47°35' W 122°21'1 2.0
2018-Feb-21 20:30N 47°34' W 122°21'0 0.0
2018-Feb-21 20:01N 47°34' W 122°21'0 0.0
2018-Feb-21 19:30N 47°34' W 122°21'0 0.0
2018-Feb-21 19:00N 47°34' W 122°21'0 0.0
2018-Feb-21 18:30N 47°34' W 122°21'1 2.0
2018-Feb-21 18:00N 47°35' W 122°21'0 0.6
2018-Feb-21 17:30N 47°36' W 122°21'1 2.0
2018-Feb-21 17:00N 47°36' W 122°23'3 5.1
2018-Feb-21 16:30N 47°35' W 122°26'3 6.8
2018-Feb-21 16:00N 47°31' W 122°25'3 7.0
2018-Feb-21 15:30N 47°28' W 122°24'3 6.7
2018-Feb-21 15:00N 47°25' W 122°22'3 5.9
2018-Feb-21 14:30N 47°22' W 122°22'3 6.4
2018-Feb-21 14:00N 47°20' W 122°25'3 6.1
2018-Feb-21 13:30N 47°17' W 122°27'2 3.3
2018-Feb-21 13:00N 47°16' W 122°26'0 0.5
2018-Feb-21 12:30N 47°16' W 122°26'0 0.0
2018-Feb-21 12:00N 47°16' W 122°26'0 0.0
2018-Feb-21 11:30N 47°16' W 122°26'0 0.0
2018-Feb-21 11:00N 47°16' W 122°26'0 0.0
2018-Feb-21 10:30N 47°16' W 122°26'0 0.0
2018-Feb-21 10:00N 47°16' W 122°26'0 0.0
2018-Feb-21 09:30N 47°16' W 122°26'0 0.0
2018-Feb-21 09:00N 47°16' W 122°26'0 0.0
2018-Feb-21 08:30N 47°16' W 122°26'0 0.0
2018-Feb-21 08:00N 47°16' W 122°26'0 0.0
2018-Feb-21 07:30N 47°16' W 122°26'0 0.0
2018-Feb-21 07:00N 47°16' W 122°26'0 0.0
2018-Feb-21 06:30N 47°16' W 122°26'0 0.0
2018-Feb-21 06:00N 47°16' W 122°26'0 0.9
2018-Feb-21 05:30N 47°16' W 122°26'2 3.2
2018-Feb-21 05:00N 47°17' W 122°28'1 2.5
2018-Feb-21 04:30N 47°18' W 122°28'3 5.3
2018-Feb-21 04:00N 47°21' W 122°26'3 6.2
2018-Feb-21 03:30N 47°23' W 122°22'3 5.8
2018-Feb-21 03:00N 47°25' W 122°24'3 6.6
2018-Feb-21 02:30N 47°29' W 122°26'3 6.4
2018-Feb-21 02:00N 47°32' W 122°27'3 6.4
2018-Feb-21 01:30N 47°35' W 122°28'3 6.0
2018-Feb-21 01:00N 47°38' W 122°28'3 6.3
2018-Feb-21 00:30N 47°41' W 122°28'3 6.3
2018-Feb-21 00:00N 47°44' W 122°28'3 5.6
2018-Feb-20 23:30N 47°47' W 122°27'3 5.5
2018-Feb-20 23:00N 47°50' W 122°28'3 5.6
2018-Feb-20 22:30N 47°52' W 122°29'3 5.3
2018-Feb-20 22:00N 47°55' W 122°30'2 4.6
2018-Feb-20 21:30N 47°56' W 122°33'21 3.4
2018-Feb-20 15:17N 48°14' W 122°49'2 6.2
2018-Feb-20 15:00N 48°16' W 122°48'3 5.8
2018-Feb-20 14:29N 48°19' W 122°47'3 5.4
2018-Feb-20 14:00N 48°22' W 122°46'2 4.8
2018-Feb-20 13:30N 48°24' W 122°45'2 4.8
2018-Feb-20 13:00N 48°26' W 122°45'2 4.5
2018-Feb-20 12:30N 48°29' W 122°45'2 4.2
2018-Feb-20 12:00N 48°31' W 122°45'2 4.5
2018-Feb-20 11:30N 48°33' W 122°45'3 5.2
2018-Feb-20 11:00N 48°36' W 122°46'3 5.7
2018-Feb-20 10:30N 48°38' W 122°44'3 5.1
2018-Feb-20 10:00N 48°41' W 122°44'3 5.9
2018-Feb-20 09:30N 48°44' W 122°46'3 6.1
2018-Feb-20 09:00N 48°47' W 122°45'2 5.0
2018-Feb-20 08:30N 48°49' W 122°44'1 0.1
2018-Feb-20 01:52N 48°49' W 122°43'2 2.9
2018-Feb-20 01:20N 48°48' W 122°44'1 3.9
2018-Feb-20 01:00N 48°47' W 122°44'3 6.7
2018-Feb-20 00:30N 48°43' W 122°44'3 6.9
2018-Feb-20 00:00N 48°40' W 122°42'3 6.3
2018-Feb-19 23:30N 48°38' W 122°44'3 5.3
2018-Feb-19 23:00N 48°35' W 122°45'2 4.9
2018-Feb-19 22:30N 48°33' W 122°45'2 4.6
2018-Feb-19 22:00N 48°30' W 122°44'2 4.6
2018-Feb-19 21:30N 48°28' W 122°44'2 4.9
2018-Feb-19 21:00N 48°26' W 122°44'3 4.8
2018-Feb-19 20:27N 48°23' W 122°44'25 6.2
2018-Feb-19 16:25N 47°59' W 122°35'3 7.9
2018-Feb-19 16:00N 47°57' W 122°31'3 6.4
2018-Feb-19 15:30N 47°54' W 122°28'3 6.9
2018-Feb-19 15:00N 47°51' W 122°27'3 5.8
2018-Feb-19 14:30N 47°48' W 122°26'2 4.9
2018-Feb-19 14:00N 47°46' W 122°25'2 4.3
2018-Feb-19 13:30N 47°43' W 122°26'2 3.8
2018-Feb-19 13:00N 47°42' W 122°27'2 4.0
2018-Feb-19 12:30N 47°40' W 122°27'2 4.5
2018-Feb-19 12:00N 47°38' W 122°26'2 4.9
2018-Feb-19 11:30N 47°36' W 122°22'2 3.1
2018-Feb-19 11:00N 47°35' W 122°21'1 1.8
2018-Feb-19 10:31N 47°34' W 122°21'0 0.0
2018-Feb-19 10:00N 47°34' W 122°21'0 0.0
2018-Feb-19 09:31N 47°34' W 122°21'0 0.0
2018-Feb-19 09:00N 47°34' W 122°21'0 0.0
2018-Feb-19 08:30N 47°34' W 122°21'0 0.0
2018-Feb-19 08:00N 47°34' W 122°21'0 0.0
2018-Feb-19 07:30N 47°34' W 122°21'0 0.0
2018-Feb-19 07:00N 47°34' W 122°21'0 0.0
2018-Feb-19 06:30N 47°34' W 122°21'0 0.0
2018-Feb-19 06:00N 47°34' W 122°21'0 0.0
2018-Feb-19 05:30N 47°34' W 122°21'0 0.0
2018-Feb-19 05:01N 47°34' W 122°21'0 0.0
2018-Feb-19 04:30N 47°34' W 122°21'0 0.0
2018-Feb-19 04:00N 47°34' W 122°21'0 0.0
2018-Feb-19 03:30N 47°34' W 122°21'0 0.0
2018-Feb-19 03:00N 47°34' W 122°21'0 0.0
2018-Feb-19 02:30N 47°34' W 122°21'0 0.0
2018-Feb-19 02:00N 47°34' W 122°21'0 0.0
2018-Feb-19 01:30N 47°34' W 122°21'0 0.0
2018-Feb-19 01:00N 47°34' W 122°21'0 0.0
2018-Feb-19 00:30N 47°34' W 122°21'0 0.0
2018-Feb-19 00:00N 47°34' W 122°21'0 0.0
2018-Feb-18 23:30N 47°34' W 122°21'0 0.0
2018-Feb-18 22:59N 47°34' W 122°21'0 0.0
2018-Feb-18 22:30N 47°34' W 122°21'0 0.0
2018-Feb-18 22:00N 47°34' W 122°21'0 0.0
2018-Feb-18 21:30N 47°34' W 122°21'0 0.0
2018-Feb-18 21:00N 47°34' W 122°21'0 0.0
2018-Feb-18 20:30N 47°34' W 122°21'0 0.0
2018-Feb-18 20:00N 47°34' W 122°21'0 0.0
2018-Feb-18 19:30N 47°34' W 122°21'0 0.0
2018-Feb-18 19:00N 47°34' W 122°21'0 0.0
2018-Feb-18 18:30N 47°34' W 122°21'0 0.0
2018-Feb-18 18:00N 47°34' W 122°21'0 0.0
2018-Feb-18 17:30N 47°34' W 122°21'0 0.0
2018-Feb-18 17:00N 47°34' W 122°21'0 0.0
2018-Feb-18 16:30N 47°34' W 122°21'0 0.0
2018-Feb-18 16:00N 47°34' W 122°21'0 0.0
2018-Feb-18 15:31N 47°34' W 122°21'0 0.0
2018-Feb-18 15:00N 47°34' W 122°21'0 0.0
2018-Feb-18 14:30N 47°34' W 122°21'0 0.0
2018-Feb-18 14:00N 47°34' W 122°21'0 0.0
2018-Feb-18 13:30N 47°34' W 122°21'0 0.0
2018-Feb-18 13:00N 47°34' W 122°21'0 0.0
2018-Feb-18 12:30N 47°34' W 122°21'0 0.0
2018-Feb-18 12:00N 47°34' W 122°21'0 0.0
2018-Feb-18 11:30N 47°34' W 122°21'0 0.0
2018-Feb-18 11:00N 47°34' W 122°21'0 0.0
2018-Feb-18 10:31N 47°34' W 122°21'0 0.0
2018-Feb-18 10:01N 47°34' W 122°21'0 0.0
2018-Feb-18 09:30N 47°34' W 122°21'0 0.0
2018-Feb-18 09:00N 47°34' W 122°21'0 0.0
2018-Feb-18 08:30N 47°34' W 122°21'0 0.0
2018-Feb-18 08:00N 47°34' W 122°21'0 0.0
2018-Feb-18 07:30N 47°34' W 122°21'0 0.0
2018-Feb-18 07:00N 47°34' W 122°21'0 0.0
2018-Feb-18 06:30N 47°34' W 122°21'0 0.0
2018-Feb-18 06:00N 47°34' W 122°21'0 0.0
2018-Feb-18 05:30N 47°34' W 122°21'0 0.1
2018-Feb-18 05:00N 47°35' W 122°21'1 3.0
2018-Feb-18 04:30N 47°36' W 122°21'1 1.5
2018-Feb-18 04:00N 47°36' W 122°22'2 3.9
2018-Feb-18 03:30N 47°37' W 122°25'3 5.2
2018-Feb-18 03:00N 47°39' W 122°28'2 4.6
2018-Feb-18 02:30N 47°41' W 122°28'3 5.3
2018-Feb-18 02:00N 47°44' W 122°27'2 4.5
2018-Feb-18 01:30N 47°46' W 122°27'2 4.3
2018-Feb-18 01:00N 47°48' W 122°28'2 5.0
2018-Feb-18 00:30N 47°50' W 122°29'3 5.7
2018-Feb-18 00:00N 47°53' W 122°29'2 4.8
2018-Feb-17 23:30N 47°55' W 122°31'5 0.9
2018-Feb-17 18:25N 47°59' W 122°35'3 7.0
2018-Feb-17 18:00N 47°57' W 122°32'3 5.6
2018-Feb-17 17:30N 47°55' W 122°29'3 5.8
2018-Feb-17 17:00N 47°53' W 122°28'4 7.1
2018-Feb-17 16:31N 47°49' W 122°27'4 7.4
2018-Feb-17 16:00N 47°45' W 122°26'4 7.8
2018-Feb-17 15:30N 47°42' W 122°27'4 7.6
2018-Feb-17 15:00N 47°38' W 122°26'3 6.4
2018-Feb-17 14:31N 47°36' W 122°22'1 2.5
2018-Feb-17 14:00N 47°35' W 122°21'0 0.0
2018-Feb-17 13:31N 47°35' W 122°21'0 0.0
2018-Feb-17 13:01N 47°35' W 122°21'0 0.0
2018-Feb-17 12:30N 47°35' W 122°21'0 0.0
2018-Feb-17 12:00N 47°35' W 122°21'0 0.0
2018-Feb-17 11:30N 47°35' W 122°21'0 0.0
2018-Feb-17 11:00N 47°35' W 122°21'0 0.0
2018-Feb-17 10:31N 47°35' W 122°21'0 0.0
2018-Feb-17 10:01N 47°35' W 122°21'0 0.0
2018-Feb-17 09:30N 47°35' W 122°21'0 0.0
2018-Feb-17 09:00N 47°35' W 122°21'0 0.0
2018-Feb-17 08:30N 47°35' W 122°21'0 0.0
2018-Feb-17 08:00N 47°35' W 122°21'0 0.0
2018-Feb-17 07:30N 47°35' W 122°21'0 0.0
2018-Feb-17 07:00N 47°35' W 122°21'0 0.0
2018-Feb-17 06:30N 47°35' W 122°21'0 0.0
2018-Feb-17 06:00N 47°35' W 122°21'0 0.0
2018-Feb-17 05:30N 47°35' W 122°21'0 0.0
2018-Feb-17 05:00N 47°35' W 122°21'0 0.0
2018-Feb-17 04:30N 47°35' W 122°21'0 0.6
2018-Feb-17 04:00N 47°35' W 122°21'1 1.2
2018-Feb-17 03:30N 47°35' W 122°21'0 0.1
2018-Feb-17 03:00N 47°35' W 122°21'0 0.0
2018-Feb-17 02:30N 47°35' W 122°21'0 0.0
2018-Feb-17 02:01N 47°35' W 122°21'0 0.0
2018-Feb-17 01:30N 47°35' W 122°21'0 0.0
2018-Feb-17 01:00N 47°35' W 122°21'0 0.0
2018-Feb-17 00:30N 47°35' W 122°21'0 0.0
2018-Feb-17 00:00N 47°35' W 122°21'0 0.0
2018-Feb-16 23:31N 47°35' W 122°21'0 0.2
2018-Feb-16 23:00N 47°36' W 122°21'0 0.1
2018-Feb-16 22:30N 47°35' W 122°21'1 2.0
2018-Feb-16 22:01N 47°35' W 122°21'0 0.2
2018-Feb-16 21:31N 47°34' W 122°21'0 0.0
2018-Feb-16 21:01N 47°34' W 122°21'0 0.0
2018-Feb-16 20:30N 47°34' W 122°21'0 0.0
2018-Feb-16 20:01N 47°34' W 122°21'0 0.0
2018-Feb-16 19:31N 47°34' W 122°21'0 0.0
2018-Feb-16 19:01N 47°34' W 122°21'0 0.0
2018-Feb-16 18:30N 47°34' W 122°21'0 0.0
2018-Feb-16 18:00N 47°34' W 122°21'0 0.0
2018-Feb-16 17:29N 47°34' W 122°21'0 0.0
2018-Feb-16 17:00N 47°34' W 122°21'0 0.0
2018-Feb-16 16:30N 47°34' W 122°21'0 0.0
2018-Feb-16 15:59N 47°34' W 122°21'0 0.0
2018-Feb-16 15:29N 47°34' W 122°21'0 0.0
2018-Feb-16 14:59N 47°34' W 122°21'0 0.0
2018-Feb-16 14:30N 47°34' W 122°21'0 0.0
2018-Feb-16 13:58N 47°34' W 122°21'0 0.0
2018-Feb-16 13:30N 47°34' W 122°21'0 0.0
2018-Feb-16 13:00N 47°34' W 122°21'0 0.0
2018-Feb-16 12:30N 47°34' W 122°21'0 0.0
2018-Feb-16 12:00N 47°34' W 122°21'0 0.0
2018-Feb-16 11:30N 47°34' W 122°21'0 0.0
2018-Feb-16 11:00N 47°34' W 122°21'0 0.0
2018-Feb-16 10:30N 47°34' W 122°21'0 0.0
2018-Feb-16 10:00N 47°34' W 122°21'0 0.0
2018-Feb-16 09:29N 47°34' W 122°21'0 0.0
2018-Feb-16 09:00N 47°34' W 122°21'0 0.0
2018-Feb-16 08:30N 47°34' W 122°21'0 0.0
2018-Feb-16 08:00N 47°34' W 122°21'0 0.0
2018-Feb-16 07:30N 47°34' W 122°21'0 0.0
2018-Feb-16 07:00N 47°34' W 122°21'0 0.0
2018-Feb-16 06:30N 47°34' W 122°21'0 0.0
2018-Feb-16 06:00N 47°34' W 122°21'0 0.0
2018-Feb-16 05:31N 47°34' W 122°21'0 0.0
2018-Feb-16 05:01N 47°34' W 122°21'0 0.0
2018-Feb-16 04:31N 47°34' W 122°21'0 0.0
2018-Feb-16 04:00N 47°34' W 122°21'0 0.0
2018-Feb-16 03:30N 47°34' W 122°21'0 0.0
2018-Feb-16 03:00N 47°34' W 122°21'0 0.0
2018-Feb-16 02:30N 47°34' W 122°21'0 0.0
2018-Feb-16 02:00N 47°34' W 122°21'0 0.0
2018-Feb-16 01:30N 47°34' W 122°21'0 0.0
2018-Feb-16 01:00N 47°34' W 122°21'0 0.0
2018-Feb-16 00:29N 47°34' W 122°21'0 0.8
2018-Feb-16 00:00N 47°35' W 122°21'0 0.8
2018-Feb-15 23:30N 47°34' W 122°21'1 2.1
2018-Feb-15 23:01N 47°35' W 122°21'1 1.9
2018-Feb-15 22:29N 47°34' W 122°21'0 0.0
2018-Feb-15 22:00N 47°34' W 122°21'0 0.0
2018-Feb-15 21:29N 47°34' W 122°21'0 0.0
2018-Feb-15 21:00N 47°34' W 122°21'0 0.0
2018-Feb-15 20:30N 47°34' W 122°21'0 0.0
2018-Feb-15 20:01N 47°34' W 122°21'0 0.0
2018-Feb-15 19:30N 47°34' W 122°21'0 0.0
2018-Feb-15 19:00N 47°34' W 122°21'0 0.0
2018-Feb-15 18:30N 47°34' W 122°21'0 0.0
2018-Feb-15 18:00N 47°34' W 122°21'0 0.0
2018-Feb-15 17:29N 47°34' W 122°21'0 0.0
2018-Feb-15 17:00N 47°34' W 122°21'0 0.0
2018-Feb-15 16:29N 47°34' W 122°21'0 0.0
2018-Feb-15 15:59N 47°34' W 122°21'0 0.0
2018-Feb-15 15:30N 47°34' W 122°21'0 0.0
2018-Feb-15 15:00N 47°34' W 122°21'0 0.0
2018-Feb-15 14:30N 47°34' W 122°21'0 0.0
2018-Feb-15 13:59N 47°34' W 122°21'0 0.0
2018-Feb-15 13:30N 47°34' W 122°21'0 0.0
2018-Feb-15 13:00N 47°34' W 122°21'0 0.0
2018-Feb-15 12:30N 47°34' W 122°21'0 0.0
2018-Feb-15 12:00N 47°34' W 122°21'0 0.0
2018-Feb-15 11:29N 47°34' W 122°21'0 0.0
2018-Feb-15 11:00N 47°34' W 122°21'0 0.0
2018-Feb-15 10:31N 47°34' W 122°21'0 0.0
2018-Feb-15 09:51N 47°34' W 122°21'0 0.0
2018-Feb-15 09:30N 47°34' W 122°21'0 0.0
2018-Feb-15 09:00N 47°34' W 122°21'0 0.0
2018-Feb-15 08:30N 47°34' W 122°21'0 0.0
2018-Feb-15 08:00N 47°34' W 122°21'0 0.0
2018-Feb-15 07:29N 47°34' W 122°21'0 0.0
2018-Feb-15 06:58N 47°34' W 122°21'0 0.0
2018-Feb-15 06:30N 47°34' W 122°21'0 0.0
2018-Feb-15 06:00N 47°34' W 122°21'0 0.0
2018-Feb-15 05:30N 47°34' W 122°21'0 0.0
2018-Feb-15 05:00N 47°34' W 122°21'0 0.0
2018-Feb-15 04:30N 47°34' W 122°21'0 0.0
2018-Feb-15 04:00N 47°34' W 122°21'1 1.7
2018-Feb-15 03:31N 47°35' W 122°21'1 1.0
2018-Feb-15 03:00N 47°36' W 122°21'0 0.6
2018-Feb-15 02:30N 47°35' W 122°21'1 2.1
2018-Feb-15 02:00N 47°34' W 122°21'0 0.0
2018-Feb-15 01:29N 47°34' W 122°21'0 0.0
2018-Feb-15 01:00N 47°34' W 122°21'0 0.0
2018-Feb-15 00:31N 47°34' W 122°21'0 0.1
2018-Feb-15 00:00N 47°34' W 122°21'0 0.4
2018-Feb-14 23:30N 47°35' W 122°21'0 0.3
2018-Feb-14 23:00N 47°35' W 122°21'1 1.3
2018-Feb-14 22:30N 47°35' W 122°21'0 0.0
2018-Feb-14 22:01N 47°35' W 122°21'0 0.0
2018-Feb-14 21:30N 47°35' W 122°21'0 0.2
2018-Feb-14 21:00N 47°35' W 122°21'1 1.9
2018-Feb-14 20:31N 47°34' W 122°21'0 0.0
2018-Feb-14 20:00N 47°34' W 122°21'1 1.7
2018-Feb-14 19:30N 47°35' W 122°21'0 0.5
2018-Feb-14 19:00N 47°35' W 122°21'1 2.7
2018-Feb-14 18:30N 47°36' W 122°23'2 4.2
2018-Feb-14 18:00N 47°38' W 122°25'2 3.0
2018-Feb-14 17:31N 47°36' W 122°26'4 7.1
2018-Feb-14 17:00N 47°33' W 122°26'4 7.0
2018-Feb-14 16:30N 47°29' W 122°24'3 6.5
2018-Feb-14 16:00N 47°26' W 122°23'3 5.9
2018-Feb-14 15:30N 47°24' W 122°21'3 5.0
2018-Feb-14 15:00N 47°22' W 122°23'3 5.7
2018-Feb-14 14:30N 47°20' W 122°26'3 5.0
2018-Feb-14 14:00N 47°17' W 122°27'2 3.2
2018-Feb-14 13:30N 47°16' W 122°26'1 1.0
2018-Feb-14 13:00N 47°16' W 122°26'0 0.0
2018-Feb-14 12:30N 47°16' W 122°26'0 0.0
2018-Feb-14 12:00N 47°16' W 122°26'0 0.0
2018-Feb-14 11:30N 47°16' W 122°26'0 0.0
2018-Feb-14 11:00N 47°16' W 122°26'0 0.0
2018-Feb-14 10:30N 47°16' W 122°26'0 0.0
2018-Feb-14 10:00N 47°16' W 122°26'0 0.0
2018-Feb-14 09:30N 47°16' W 122°26'0 0.0
2018-Feb-14 09:00N 47°16' W 122°26'0 0.0
2018-Feb-14 08:30N 47°16' W 122°26'0 0.0
2018-Feb-14 08:00N 47°16' W 122°26'0 0.0
2018-Feb-14 07:30N 47°16' W 122°26'0 0.0
2018-Feb-14 07:00N 47°16' W 122°26'0 0.0
2018-Feb-14 06:30N 47°16' W 122°26'1 2.4
2018-Feb-14 06:00N 47°17' W 122°27'1 1.7
2018-Feb-14 05:31N 47°17' W 122°27'2 4.6
2018-Feb-14 05:00N 47°20' W 122°28'3 6.3
2018-Feb-14 04:30N 47°22' W 122°24'3 5.3
2018-Feb-14 04:00N 47°24' W 122°23'3 6.4
2018-Feb-14 03:30N 47°27' W 122°25'3 5.9
2018-Feb-14 03:00N 47°30' W 122°26'3 6.2
2018-Feb-14 02:30N 47°33' W 122°27'3 5.8
2018-Feb-14 02:00N 47°36' W 122°28'3 6.1
2018-Feb-14 01:30N 47°39' W 122°28'3 6.1
2018-Feb-14 01:00N 47°42' W 122°28'3 6.3
2018-Feb-14 00:30N 47°45' W 122°27'3 6.0
2018-Feb-14 00:00N 47°48' W 122°28'3 6.1
2018-Feb-13 23:30N 47°51' W 122°29'3 6.2
2018-Feb-13 23:00N 47°54' W 122°30'3 5.8
2018-Feb-13 22:29N 47°56' W 122°32'3 6.2
2018-Feb-13 22:00N 47°58' W 122°36'20 6.5
2018-Feb-13 18:52N 48°17' W 122°48'3 6.7
2018-Feb-13 18:28N 48°19' W 122°47'3 6.7
2018-Feb-13 17:59N 48°23' W 122°46'3 6.9
2018-Feb-13 17:29N 48°26' W 122°45'3 6.7
2018-Feb-13 17:00N 48°29' W 122°45'4 7.1
2018-Feb-13 16:30N 48°33' W 122°45'4 7.3
2018-Feb-13 16:00N 48°36' W 122°46'4 7.1
2018-Feb-13 15:30N 48°40' W 122°44'3 6.4
2018-Feb-13 15:00N 48°43' W 122°45'3 5.1
2018-Feb-13 14:24N 48°46' W 122°45'2 6.0
2018-Feb-13 13:59N 48°48' W 122°45'1 2.8
2018-Feb-13 13:29N 48°49' W 122°43'0 0.0
2018-Feb-13 05:24N 48°49' W 122°43'1 2.2
2018-Feb-13 04:52N 48°48' W 122°44'2 5.8
2018-Feb-13 04:30N 48°46' W 122°45'3 5.6
2018-Feb-13 04:00N 48°44' W 122°44'3 5.5
2018-Feb-13 03:30N 48°41' W 122°42'3 5.6
2018-Feb-13 03:00N 48°39' W 122°39'3 6.3
2018-Feb-13 02:30N 48°38' W 122°35'4 7.3
2018-Feb-13 02:00N 48°42' W 122°33'3 5.5
2018-Feb-13 01:30N 48°44' W 122°31'1 2.0
2018-Feb-13 00:56N 48°45' W 122°30'0 0.0
2018-Feb-13 00:29N 48°45' W 122°30'0 0.0
2018-Feb-12 23:59N 48°45' W 122°30'0 0.0
2018-Feb-12 23:29N 48°45' W 122°30'0 0.0
2018-Feb-12 22:59N 48°45' W 122°30'0 0.0
2018-Feb-12 22:29N 48°45' W 122°30'0 0.0
2018-Feb-12 21:59N 48°45' W 122°30'0 0.0
2018-Feb-12 21:29N 48°45' W 122°30'0 0.0
2018-Feb-12 20:59N 48°45' W 122°30'0 0.0
2018-Feb-12 20:23N 48°45' W 122°30'0 0.0
2018-Feb-12 19:53N 48°45' W 122°30'0 0.0
2018-Feb-12 19:29N 48°45' W 122°30'0 0.0
2018-Feb-12 18:59N 48°45' W 122°30'0 0.0
2018-Feb-12 18:29N 48°45' W 122°30'0 0.0
2018-Feb-12 17:59N 48°45' W 122°30'0 0.0
2018-Feb-12 17:29N 48°45' W 122°30'0 0.0
2018-Feb-12 16:59N 48°45' W 122°30'0 0.0
2018-Feb-12 16:29N 48°45' W 122°30'0 0.0
2018-Feb-12 15:56N 48°45' W 122°30'0 0.0
2018-Feb-12 15:17N 48°45' W 122°30'0 0.0
2018-Feb-12 14:59N 48°45' W 122°30'0 0.0
2018-Feb-12 14:29N 48°45' W 122°30'0 0.0
2018-Feb-12 13:59N 48°45' W 122°30'0 0.0
2018-Feb-12 13:29N 48°45' W 122°30'0 0.0
2018-Feb-12 12:53N 48°45' W 122°30'0 0.0
2018-Feb-12 12:26N 48°45' W 122°30'0 0.0
2018-Feb-12 11:56N 48°45' W 122°30'0 0.0
2018-Feb-12 11:29N 48°45' W 122°30'0 0.0
2018-Feb-12 10:59N 48°45' W 122°30'0 0.0
2018-Feb-12 10:26N 48°45' W 122°30'0 0.0
2018-Feb-12 09:59N 48°45' W 122°30'0 0.0
2018-Feb-12 09:26N 48°45' W 122°30'  
Track history (hours):
 
Tides and Currents Weather Stations Pressure Air Temp Water Temp Dewpoint Dewpoint Depression Visibility Wind Speed Wind Dir Waves Ship Positions

C E

Owner: Harley Marine Services, Inc, Seattle, WA. More information available from US FCC via Universal Licensing System and Coast Guard Vessel Documentation Center.

Last reported at 2018-Feb-22 09:00 UTC. Time now 2018-Feb-22 09:12 UTC.
Position N 48°25' W 122°44'.

Length 30 m; draft 6 m.

Type: Tow > 200 m length. MMSI: 367705050.

Date/timePositionNaut miles runAvg speedWind from/ knotsBaromVisibWave heightAir tempDewpointWater temp
2018-Feb-22 09:00N 48°25' W 122°44'2 3.5
2018-Feb-22 08:28N 48°23' W 122°44'2 3.3
2018-Feb-22 07:50N 48°21' W 122°45'2 3.5
2018-Feb-22 07:17N 48°20' W 122°45'1 3.7
2018-Feb-22 06:59N 48°18' W 122°46'18 4.0
2018-Feb-22 02:25N 48°01' W 122°37'2 5.3
2018-Feb-22 02:00N 47°59' W 122°35'3 5.6
2018-Feb-22 01:30N 47°57' W 122°32'3 6.4
2018-Feb-22 01:00N 47°55' W 122°29'3 6.6
2018-Feb-22 00:30N 47°52' W 122°28'3 6.9
2018-Feb-22 00:00N 47°49' W 122°26'3 6.9
2018-Feb-21 23:30N 47°45' W 122°25'3 6.5
2018-Feb-21 23:00N 47°42' W 122°26'3 6.7
2018-Feb-21 22:30N 47°39' W 122°26'3 6.8
2018-Feb-21 22:00N 47°36' W 122°23'2 3.1
2018-Feb-21 21:31N 47°36' W 122°21'0 0.3
2018-Feb-21 21:00N 47°35' W 122°21'1 2.0
2018-Feb-21 20:30N 47°34' W 122°21'0 0.0
2018-Feb-21 20:01N 47°34' W 122°21'0 0.0
2018-Feb-21 19:30N 47°34' W 122°21'0 0.0
2018-Feb-21 19:00N 47°34' W 122°21'0 0.0
2018-Feb-21 18:30N 47°34' W 122°21'1 2.0
2018-Feb-21 18:00N 47°35' W 122°21'0 0.6
2018-Feb-21 17:30N 47°36' W 122°21'1 2.0
2018-Feb-21 17:00N 47°36' W 122°23'3 5.1
2018-Feb-21 16:30N 47°35' W 122°26'3 6.8
2018-Feb-21 16:00N 47°31' W 122°25'3 7.0
2018-Feb-21 15:30N 47°28' W 122°24'3 6.7
2018-Feb-21 15:00N 47°25' W 122°22'3 5.9
2018-Feb-21 14:30N 47°22' W 122°22'3 6.4
2018-Feb-21 14:00N 47°20' W 122°25'3 6.1
2018-Feb-21 13:30N 47°17' W 122°27'2 3.3
2018-Feb-21 13:00N 47°16' W 122°26'0 0.5
2018-Feb-21 12:30N 47°16' W 122°26'0 0.0
2018-Feb-21 12:00N 47°16' W 122°26'0 0.0
2018-Feb-21 11:30N 47°16' W 122°26'0 0.0
2018-Feb-21 11:00N 47°16' W 122°26'0 0.0
2018-Feb-21 10:30N 47°16' W 122°26'0 0.0
2018-Feb-21 10:00N 47°16' W 122°26'0 0.0
2018-Feb-21 09:30N 47°16' W 122°26'0 0.0
2018-Feb-21 09:00N 47°16' W 122°26'0 0.0
2018-Feb-21 08:30N 47°16' W 122°26'0 0.0
2018-Feb-21 08:00N 47°16' W 122°26'0 0.0
2018-Feb-21 07:30N 47°16' W 122°26'0 0.0
2018-Feb-21 07:00N 47°16' W 122°26'0 0.0
2018-Feb-21 06:30N 47°16' W 122°26'0 0.0
2018-Feb-21 06:00N 47°16' W 122°26'0 0.9
2018-Feb-21 05:30N 47°16' W 122°26'2 3.2
2018-Feb-21 05:00N 47°17' W 122°28'1 2.5
2018-Feb-21 04:30N 47°18' W 122°28'3 5.3
2018-Feb-21 04:00N 47°21' W 122°26'3 6.2
2018-Feb-21 03:30N 47°23' W 122°22'3 5.8
2018-Feb-21 03:00N 47°25' W 122°24'3 6.6
2018-Feb-21 02:30N 47°29' W 122°26'3 6.4
2018-Feb-21 02:00N 47°32' W 122°27'3 6.4
2018-Feb-21 01:30N 47°35' W 122°28'3 6.0
2018-Feb-21 01:00N 47°38' W 122°28'3 6.3
2018-Feb-21 00:30N 47°41' W 122°28'3 6.3
2018-Feb-21 00:00N 47°44' W 122°28'3 5.6
2018-Feb-20 23:30N 47°47' W 122°27'3 5.5
2018-Feb-20 23:00N 47°50' W 122°28'3 5.6
2018-Feb-20 22:30N 47°52' W 122°29'3 5.3
2018-Feb-20 22:00N 47°55' W 122°30'2 4.6
2018-Feb-20 21:30N 47°56' W 122°33'21 3.4
2018-Feb-20 15:17N 48°14' W 122°49'2 6.2
2018-Feb-20 15:00N 48°16' W 122°48'3 5.8
2018-Feb-20 14:29N 48°19' W 122°47'3 5.4
2018-Feb-20 14:00N 48°22' W 122°46'2 4.8
2018-Feb-20 13:30N 48°24' W 122°45'2 4.8
2018-Feb-20 13:00N 48°26' W 122°45'2 4.5
2018-Feb-20 12:30N 48°29' W 122°45'2 4.2
2018-Feb-20 12:00N 48°31' W 122°45'2 4.5
2018-Feb-20 11:30N 48°33' W 122°45'3 5.2
2018-Feb-20 11:00N 48°36' W 122°46'3 5.7
2018-Feb-20 10:30N 48°38' W 122°44'3 5.1
2018-Feb-20 10:00N 48°41' W 122°44'3 5.9
2018-Feb-20 09:30N 48°44' W 122°46'3 6.1
2018-Feb-20 09:00N 48°47' W 122°45'2 5.0
2018-Feb-20 08:30N 48°49' W 122°44'1 0.1
2018-Feb-20 01:52N 48°49' W 122°43'2 2.9
2018-Feb-20 01:20N 48°48' W 122°44'1 3.9
2018-Feb-20 01:00N 48°47' W 122°44'3 6.7
2018-Feb-20 00:30N 48°43' W 122°44'3 6.9
2018-Feb-20 00:00N 48°40' W 122°42'3 6.3
2018-Feb-19 23:30N 48°38' W 122°44'3 5.3
2018-Feb-19 23:00N 48°35' W 122°45'2 4.9
2018-Feb-19 22:30N 48°33' W 122°45'2 4.6
2018-Feb-19 22:00N 48°30' W 122°44'2 4.6
2018-Feb-19 21:30N 48°28' W 122°44'2 4.9
2018-Feb-19 21:00N 48°26' W 122°44'3 4.8
2018-Feb-19 20:27N 48°23' W 122°44'25 6.2
2018-Feb-19 16:25N 47°59' W 122°35'3 7.9
2018-Feb-19 16:00N 47°57' W 122°31'3 6.4
2018-Feb-19 15:30N 47°54' W 122°28'3 6.9
2018-Feb-19 15:00N 47°51' W 122°27'3 5.8
2018-Feb-19 14:30N 47°48' W 122°26'2 4.9
2018-Feb-19 14:00N 47°46' W 122°25'2 4.3
2018-Feb-19 13:30N 47°43' W 122°26'2 3.8
2018-Feb-19 13:00N 47°42' W 122°27'2 4.0
2018-Feb-19 12:30N 47°40' W 122°27'2 4.5
2018-Feb-19 12:00N 47°38' W 122°26'2 4.9
2018-Feb-19 11:30N 47°36' W 122°22'2 3.1
2018-Feb-19 11:00N 47°35' W 122°21'1 1.8
2018-Feb-19 10:31N 47°34' W 122°21'0 0.0
2018-Feb-19 10:00N 47°34' W 122°21'0 0.0
2018-Feb-19 09:31N 47°34' W 122°21'0 0.0
2018-Feb-19 09:00N 47°34' W 122°21'0 0.0
2018-Feb-19 08:30N 47°34' W 122°21'0 0.0
2018-Feb-19 08:00N 47°34' W 122°21'0 0.0
2018-Feb-19 07:30N 47°34' W 122°21'0 0.0
2018-Feb-19 07:00N 47°34' W 122°21'0 0.0
2018-Feb-19 06:30N 47°34' W 122°21'0 0.0
2018-Feb-19 06:00N 47°34' W 122°21'0 0.0
2018-Feb-19 05:30N 47°34' W 122°21'0 0.0
2018-Feb-19 05:01N 47°34' W 122°21'0 0.0
2018-Feb-19 04:30N 47°34' W 122°21'0 0.0
2018-Feb-19 04:00N 47°34' W 122°21'0 0.0
2018-Feb-19 03:30N 47°34' W 122°21'0 0.0
2018-Feb-19 03:00N 47°34' W 122°21'0 0.0
2018-Feb-19 02:30N 47°34' W 122°21'0 0.0
2018-Feb-19 02:00N 47°34' W 122°21'0 0.0
2018-Feb-19 01:30N 47°34' W 122°21'0 0.0
2018-Feb-19 01:00N 47°34' W 122°21'0 0.0
2018-Feb-19 00:30N 47°34' W 122°21'0 0.0
2018-Feb-19 00:00N 47°34' W 122°21'0 0.0
2018-Feb-18 23:30N 47°34' W 122°21'0 0.0
2018-Feb-18 22:59N 47°34' W 122°21'0 0.0
2018-Feb-18 22:30N 47°34' W 122°21'0 0.0
2018-Feb-18 22:00N 47°34' W 122°21'0 0.0
2018-Feb-18 21:30N 47°34' W 122°21'0 0.0
2018-Feb-18 21:00N 47°34' W 122°21'0 0.0
2018-Feb-18 20:30N 47°34' W 122°21'0 0.0
2018-Feb-18 20:00N 47°34' W 122°21'0 0.0
2018-Feb-18 19:30N 47°34' W 122°21'0 0.0
2018-Feb-18 19:00N 47°34' W 122°21'0 0.0
2018-Feb-18 18:30N 47°34' W 122°21'0 0.0
2018-Feb-18 18:00N 47°34' W 122°21'0 0.0
2018-Feb-18 17:30N 47°34' W 122°21'0 0.0
2018-Feb-18 17:00N 47°34' W 122°21'0 0.0
2018-Feb-18 16:30N 47°34' W 122°21'0 0.0
2018-Feb-18 16:00N 47°34' W 122°21'0 0.0
2018-Feb-18 15:31N 47°34' W 122°21'0 0.0
2018-Feb-18 15:00N 47°34' W 122°21'0 0.0
2018-Feb-18 14:30N 47°34' W 122°21'0 0.0
2018-Feb-18 14:00N 47°34' W 122°21'0 0.0
2018-Feb-18 13:30N 47°34' W 122°21'0 0.0
2018-Feb-18 13:00N 47°34' W 122°21'0 0.0
2018-Feb-18 12:30N 47°34' W 122°21'0 0.0
2018-Feb-18 12:00N 47°34' W 122°21'0 0.0
2018-Feb-18 11:30N 47°34' W 122°21'0 0.0
2018-Feb-18 11:00N 47°34' W 122°21'0 0.0
2018-Feb-18 10:31N 47°34' W 122°21'0 0.0
2018-Feb-18 10:01N 47°34' W 122°21'0 0.0
2018-Feb-18 09:30N 47°34' W 122°21'0 0.0
2018-Feb-18 09:00N 47°34' W 122°21'0 0.0
2018-Feb-18 08:30N 47°34' W 122°21'0 0.0
2018-Feb-18 08:00N 47°34' W 122°21'0 0.0
2018-Feb-18 07:30N 47°34' W 122°21'0 0.0
2018-Feb-18 07:00N 47°34' W 122°21'0 0.0
2018-Feb-18 06:30N 47°34' W 122°21'0 0.0
2018-Feb-18 06:00N 47°34' W 122°21'0 0.0
2018-Feb-18 05:30N 47°34' W 122°21'0 0.1
2018-Feb-18 05:00N 47°35' W 122°21'1 3.0
2018-Feb-18 04:30N 47°36' W 122°21'1 1.5
2018-Feb-18 04:00N 47°36' W 122°22'2 3.9
2018-Feb-18 03:30N 47°37' W 122°25'3 5.2
2018-Feb-18 03:00N 47°39' W 122°28'2 4.6
2018-Feb-18 02:30N 47°41' W 122°28'3 5.3
2018-Feb-18 02:00N 47°44' W 122°27'2 4.5
2018-Feb-18 01:30N 47°46' W 122°27'2 4.3
2018-Feb-18 01:00N 47°48' W 122°28'2 5.0
2018-Feb-18 00:30N 47°50' W 122°29'3 5.7
2018-Feb-18 00:00N 47°53' W 122°29'2 4.8
2018-Feb-17 23:30N 47°55' W 122°31'5 0.9
2018-Feb-17 18:25N 47°59' W 122°35'3 7.0
2018-Feb-17 18:00N 47°57' W 122°32'3 5.6
2018-Feb-17 17:30N 47°55' W 122°29'3 5.8
2018-Feb-17 17:00N 47°53' W 122°28'4 7.1
2018-Feb-17 16:31N 47°49' W 122°27'4 7.4
2018-Feb-17 16:00N 47°45' W 122°26'4 7.8
2018-Feb-17 15:30N 47°42' W 122°27'4 7.6
2018-Feb-17 15:00N 47°38' W 122°26'3 6.4
2018-Feb-17 14:31N 47°36' W 122°22'1 2.5
2018-Feb-17 14:00N 47°35' W 122°21'0 0.0
2018-Feb-17 13:31N 47°35' W 122°21'0 0.0
2018-Feb-17 13:01N 47°35' W 122°21'0 0.0
2018-Feb-17 12:30N 47°35' W 122°21'0 0.0
2018-Feb-17 12:00N 47°35' W 122°21'0 0.0
2018-Feb-17 11:30N 47°35' W 122°21'0 0.0
2018-Feb-17 11:00N 47°35' W 122°21'0 0.0
2018-Feb-17 10:31N 47°35' W 122°21'0 0.0
2018-Feb-17 10:01N 47°35' W 122°21'0 0.0
2018-Feb-17 09:30N 47°35' W 122°21'0 0.0
2018-Feb-17 09:00N 47°35' W 122°21'0 0.0
2018-Feb-17 08:30N 47°35' W 122°21'0 0.0
2018-Feb-17 08:00N 47°35' W 122°21'0 0.0
2018-Feb-17 07:30N 47°35' W 122°21'0 0.0
2018-Feb-17 07:00N 47°35' W 122°21'0 0.0
2018-Feb-17 06:30N 47°35' W 122°21'0 0.0
2018-Feb-17 06:00N 47°35' W 122°21'0 0.0
2018-Feb-17 05:30N 47°35' W 122°21'0 0.0
2018-Feb-17 05:00N 47°35' W 122°21'0 0.0
2018-Feb-17 04:30N 47°35' W 122°21'0 0.6
2018-Feb-17 04:00N 47°35' W 122°21'1 1.2
2018-Feb-17 03:30N 47°35' W 122°21'0 0.1
2018-Feb-17 03:00N 47°35' W 122°21'0 0.0
2018-Feb-17 02:30N 47°35' W 122°21'0 0.0
2018-Feb-17 02:01N 47°35' W 122°21'0 0.0
2018-Feb-17 01:30N 47°35' W 122°21'0 0.0
2018-Feb-17 01:00N 47°35' W 122°21'0 0.0
2018-Feb-17 00:30N 47°35' W 122°21'0 0.0
2018-Feb-17 00:00N 47°35' W 122°21'0 0.0
2018-Feb-16 23:31N 47°35' W 122°21'0 0.2
2018-Feb-16 23:00N 47°36' W 122°21'0 0.1
2018-Feb-16 22:30N 47°35' W 122°21'1 2.0
2018-Feb-16 22:01N 47°35' W 122°21'0 0.2
2018-Feb-16 21:31N 47°34' W 122°21'0 0.0
2018-Feb-16 21:01N 47°34' W 122°21'0 0.0
2018-Feb-16 20:30N 47°34' W 122°21'0 0.0
2018-Feb-16 20:01N 47°34' W 122°21'0 0.0
2018-Feb-16 19:31N 47°34' W 122°21'0 0.0
2018-Feb-16 19:01N 47°34' W 122°21'0 0.0
2018-Feb-16 18:30N 47°34' W 122°21'0 0.0
2018-Feb-16 18:00N 47°34' W 122°21'0 0.0
2018-Feb-16 17:29N 47°34' W 122°21'0 0.0
2018-Feb-16 17:00N 47°34' W 122°21'0 0.0
2018-Feb-16 16:30N 47°34' W 122°21'0 0.0
2018-Feb-16 15:59N 47°34' W 122°21'0 0.0
2018-Feb-16 15:29N 47°34' W 122°21'0 0.0
2018-Feb-16 14:59N 47°34' W 122°21'0 0.0
2018-Feb-16 14:30N 47°34' W 122°21'0 0.0
2018-Feb-16 13:58N 47°34' W 122°21'0 0.0
2018-Feb-16 13:30N 47°34' W 122°21'0 0.0
2018-Feb-16 13:00N 47°34' W 122°21'0 0.0
2018-Feb-16 12:30N 47°34' W 122°21'0 0.0
2018-Feb-16 12:00N 47°34' W 122°21'0 0.0
2018-Feb-16 11:30N 47°34' W 122°21'0 0.0
2018-Feb-16 11:00N 47°34' W 122°21'0 0.0
2018-Feb-16 10:30N 47°34' W 122°21'0 0.0
2018-Feb-16 10:00N 47°34' W 122°21'0 0.0
2018-Feb-16 09:29N 47°34' W 122°21'0 0.0
2018-Feb-16 09:00N 47°34' W 122°21'0 0.0
2018-Feb-16 08:30N 47°34' W 122°21'0 0.0
2018-Feb-16 08:00N 47°34' W 122°21'0 0.0
2018-Feb-16 07:30N 47°34' W 122°21'0 0.0
2018-Feb-16 07:00N 47°34' W 122°21'0 0.0
2018-Feb-16 06:30N 47°34' W 122°21'0 0.0
2018-Feb-16 06:00N 47°34' W 122°21'0 0.0
2018-Feb-16 05:31N 47°34' W 122°21'0 0.0
2018-Feb-16 05:01N 47°34' W 122°21'0 0.0
2018-Feb-16 04:31N 47°34' W 122°21'0 0.0
2018-Feb-16 04:00N 47°34' W 122°21'0 0.0
2018-Feb-16 03:30N 47°34' W 122°21'0 0.0
2018-Feb-16 03:00N 47°34' W 122°21'0 0.0
2018-Feb-16 02:30N 47°34' W 122°21'0 0.0
2018-Feb-16 02:00N 47°34' W 122°21'0 0.0
2018-Feb-16 01:30N 47°34' W 122°21'0 0.0
2018-Feb-16 01:00N 47°34' W 122°21'0 0.0
2018-Feb-16 00:29N 47°34' W 122°21'0 0.8
2018-Feb-16 00:00N 47°35' W 122°21'0 0.8
2018-Feb-15 23:30N 47°34' W 122°21'1 2.1
2018-Feb-15 23:01N 47°35' W 122°21'1 1.9
2018-Feb-15 22:29N 47°34' W 122°21'0 0.0
2018-Feb-15 22:00N 47°34' W 122°21'0 0.0
2018-Feb-15 21:29N 47°34' W 122°21'0 0.0
2018-Feb-15 21:00N 47°34' W 122°21'0 0.0
2018-Feb-15 20:30N 47°34' W 122°21'0 0.0
2018-Feb-15 20:01N 47°34' W 122°21'0 0.0
2018-Feb-15 19:30N 47°34' W 122°21'0 0.0
2018-Feb-15 19:00N 47°34' W 122°21'0 0.0
2018-Feb-15 18:30N 47°34' W 122°21'0 0.0
2018-Feb-15 18:00N 47°34' W 122°21'0 0.0
2018-Feb-15 17:29N 47°34' W 122°21'0 0.0
2018-Feb-15 17:00N 47°34' W 122°21'0 0.0
2018-Feb-15 16:29N 47°34' W 122°21'0 0.0
2018-Feb-15 15:59N 47°34' W 122°21'0 0.0
2018-Feb-15 15:30N 47°34' W 122°21'0 0.0
2018-Feb-15 15:00N 47°34' W 122°21'0 0.0
2018-Feb-15 14:30N 47°34' W 122°21'0 0.0
2018-Feb-15 13:59N 47°34' W 122°21'0 0.0
2018-Feb-15 13:30N 47°34' W 122°21'0 0.0
2018-Feb-15 13:00N 47°34' W 122°21'0 0.0
2018-Feb-15 12:30N 47°34' W 122°21'0 0.0
2018-Feb-15 12:00N 47°34' W 122°21'0 0.0
2018-Feb-15 11:29N 47°34' W 122°21'0 0.0
2018-Feb-15 11:00N 47°34' W 122°21'0 0.0
2018-Feb-15 10:31N 47°34' W 122°21'0 0.0
2018-Feb-15 09:51N 47°34' W 122°21'0 0.0
2018-Feb-15 09:30N 47°34' W 122°21'0 0.0
2018-Feb-15 09:00N 47°34' W 122°21'0 0.0
2018-Feb-15 08:30N 47°34' W 122°21'0 0.0
2018-Feb-15 08:00N 47°34' W 122°21'0 0.0
2018-Feb-15 07:29N 47°34' W 122°21'0 0.0
2018-Feb-15 06:58N 47°34' W 122°21'0 0.0
2018-Feb-15 06:30N 47°34' W 122°21'0 0.0
2018-Feb-15 06:00N 47°34' W 122°21'0 0.0
2018-Feb-15 05:30N 47°34' W 122°21'0 0.0
2018-Feb-15 05:00N 47°34' W 122°21'0 0.0
2018-Feb-15 04:30N 47°34' W 122°21'0 0.0
2018-Feb-15 04:00N 47°34' W 122°21'1 1.7
2018-Feb-15 03:31N 47°35' W 122°21'1 1.0
2018-Feb-15 03:00N 47°36' W 122°21'0 0.6
2018-Feb-15 02:30N 47°35' W 122°21'1 2.1
2018-Feb-15 02:00N 47°34' W 122°21'0 0.0
2018-Feb-15 01:29N 47°34' W 122°21'0 0.0
2018-Feb-15 01:00N 47°34' W 122°21'0 0.0
2018-Feb-15 00:31N 47°34' W 122°21'0 0.1
2018-Feb-15 00:00N 47°34' W 122°21'0 0.4
2018-Feb-14 23:30N 47°35' W 122°21'0 0.3
2018-Feb-14 23:00N 47°35' W 122°21'1 1.3
2018-Feb-14 22:30N 47°35' W 122°21'0 0.0
2018-Feb-14 22:01N 47°35' W 122°21'0 0.0
2018-Feb-14 21:30N 47°35' W 122°21'0 0.2
2018-Feb-14 21:00N 47°35' W 122°21'1 1.9
2018-Feb-14 20:31N 47°34' W 122°21'0 0.0
2018-Feb-14 20:00N 47°34' W 122°21'1 1.7
2018-Feb-14 19:30N 47°35' W 122°21'0 0.5
2018-Feb-14 19:00N 47°35' W 122°21'1 2.7
2018-Feb-14 18:30N 47°36' W 122°23'2 4.2
2018-Feb-14 18:00N 47°38' W 122°25'2 3.0
2018-Feb-14 17:31N 47°36' W 122°26'4 7.1
2018-Feb-14 17:00N 47°33' W 122°26'4 7.0
2018-Feb-14 16:30N 47°29' W 122°24'3 6.5
2018-Feb-14 16:00N 47°26' W 122°23'3 5.9
2018-Feb-14 15:30N 47°24' W 122°21'3 5.0
2018-Feb-14 15:00N 47°22' W 122°23'3 5.7
2018-Feb-14 14:30N 47°20' W 122°26'3 5.0
2018-Feb-14 14:00N 47°17' W 122°27'2 3.2
2018-Feb-14 13:30N 47°16' W 122°26'1 1.0
2018-Feb-14 13:00N 47°16' W 122°26'0 0.0
2018-Feb-14 12:30N 47°16' W 122°26'0 0.0
2018-Feb-14 12:00N 47°16' W 122°26'0 0.0
2018-Feb-14 11:30N 47°16' W 122°26'0 0.0
2018-Feb-14 11:00N 47°16' W 122°26'0 0.0
2018-Feb-14 10:30N 47°16' W 122°26'0 0.0
2018-Feb-14 10:00N 47°16' W 122°26'0 0.0
2018-Feb-14 09:30N 47°16' W 122°26'0 0.0
2018-Feb-14 09:00N 47°16' W 122°26'0 0.0
2018-Feb-14 08:30N 47°16' W 122°26'0 0.0
2018-Feb-14 08:00N 47°16' W 122°26'0 0.0
2018-Feb-14 07:30N 47°16' W 122°26'0 0.0
2018-Feb-14 07:00N 47°16' W 122°26'0 0.0
2018-Feb-14 06:30N 47°16' W 122°26'1 2.4
2018-Feb-14 06:00N 47°17' W 122°27'1 1.7
2018-Feb-14 05:31N 47°17' W 122°27'2 4.6
2018-Feb-14 05:00N 47°20' W 122°28'3 6.3
2018-Feb-14 04:30N 47°22' W 122°24'3 5.3
2018-Feb-14 04:00N 47°24' W 122°23'3 6.4
2018-Feb-14 03:30N 47°27' W 122°25'3 5.9
2018-Feb-14 03:00N 47°30' W 122°26'3 6.2
2018-Feb-14 02:30N 47°33' W 122°27'3 5.8
2018-Feb-14 02:00N 47°36' W 122°28'3 6.1
2018-Feb-14 01:30N 47°39' W 122°28'3 6.1
2018-Feb-14 01:00N 47°42' W 122°28'3 6.3
2018-Feb-14 00:30N 47°45' W 122°27'3 6.0
2018-Feb-14 00:00N 47°48' W 122°28'3 6.1
2018-Feb-13 23:30N 47°51' W 122°29'3 6.2
2018-Feb-13 23:00N 47°54' W 122°30'3 5.8
2018-Feb-13 22:29N 47°56' W 122°32'3 6.2
2018-Feb-13 22:00N 47°58' W 122°36'20 6.5
2018-Feb-13 18:52N 48°17' W 122°48'3 6.7
2018-Feb-13 18:28N 48°19' W 122°47'3 6.7
2018-Feb-13 17:59N 48°23' W 122°46'3 6.9
2018-Feb-13 17:29N 48°26' W 122°45'3 6.7
2018-Feb-13 17:00N 48°29' W 122°45'4 7.1
2018-Feb-13 16:30N 48°33' W 122°45'4 7.3
2018-Feb-13 16:00N 48°36' W 122°46'4 7.1
2018-Feb-13 15:30N 48°40' W 122°44'3 6.4
2018-Feb-13 15:00N 48°43' W 122°45'3 5.1
2018-Feb-13 14:24N 48°46' W 122°45'2 6.0
2018-Feb-13 13:59N 48°48' W 122°45'1 2.8
2018-Feb-13 13:29N 48°49' W 122°43'0 0.0
2018-Feb-13 05:24N 48°49' W 122°43'1 2.2
2018-Feb-13 04:52N 48°48' W 122°44'2 5.8
2018-Feb-13 04:30N 48°46' W 122°45'3 5.6
2018-Feb-13 04:00N 48°44' W 122°44'3 5.5
2018-Feb-13 03:30N 48°41' W 122°42'3 5.6
2018-Feb-13 03:00N 48°39' W 122°39'3 6.3
2018-Feb-13 02:30N 48°38' W 122°35'4 7.3
2018-Feb-13 02:00N 48°42' W 122°33'3 5.5
2018-Feb-13 01:30N 48°44' W 122°31'1 2.0
2018-Feb-13 00:56N 48°45' W 122°30'0 0.0
2018-Feb-13 00:29N 48°45' W 122°30'0 0.0
2018-Feb-12 23:59N 48°45' W 122°30'0 0.0
2018-Feb-12 23:29N 48°45' W 122°30'0 0.0
2018-Feb-12 22:59N 48°45' W 122°30'0 0.0
2018-Feb-12 22:29N 48°45' W 122°30'0 0.0
2018-Feb-12 21:59N 48°45' W 122°30'0 0.0
2018-Feb-12 21:29N 48°45' W 122°30'0 0.0
2018-Feb-12 20:59N 48°45' W 122°30'0 0.0
2018-Feb-12 20:23N 48°45' W 122°30'0 0.0
2018-Feb-12 19:53N 48°45' W 122°30'0 0.0
2018-Feb-12 19:29N 48°45' W 122°30'0 0.0
2018-Feb-12 18:59N 48°45' W 122°30'0 0.0
2018-Feb-12 18:29N 48°45' W 122°30'0 0.0
2018-Feb-12 17:59N 48°45' W 122°30'0 0.0
2018-Feb-12 17:29N 48°45' W 122°30'0 0.0
2018-Feb-12 16:59N 48°45' W 122°30'0 0.0
2018-Feb-12 16:29N 48°45' W 122°30'0 0.0
2018-Feb-12 15:56N 48°45' W 122°30'0 0.0
2018-Feb-12 15:17N 48°45' W 122°30'0 0.0
2018-Feb-12 14:59N 48°45' W 122°30'0 0.0
2018-Feb-12 14:29N 48°45' W 122°30'0 0.0
2018-Feb-12 13:59N 48°45' W 122°30'0 0.0
2018-Feb-12 13:29N 48°45' W 122°30'0 0.0
2018-Feb-12 12:53N 48°45' W 122°30'0 0.0
2018-Feb-12 12:26N 48°45' W 122°30'0 0.0
2018-Feb-12 11:56N 48°45' W 122°30'0 0.0
2018-Feb-12 11:29N 48°45' W 122°30'0 0.0
2018-Feb-12 10:59N 48°45' W 122°30'0 0.0
2018-Feb-12 10:26N 48°45' W 122°30'0 0.0
2018-Feb-12 09:59N 48°45' W 122°30'0 0.0
2018-Feb-12 09:26N 48°45' W 122°30'  

Dump ship's entire track history